Time;durP1;ratioP1;P1;durP2;ratioP2;P2;SDS_P1;SDS_P2;PMS_P1;PMS_P2;Temp;Humidity;BMP_temperature;BMP_pressure;BME280_temperature;BME280_humidity;BME280_pressure;Samples;Min_cycle;Max_cycle;Signal;HPM_P1;HPM_P2
2022/09/05 00:00:02;;;;;;;0.20;0.03;;;24.70;99.90;;;;;;26045635;22;20163;-72
2022/09/05 00:10:18;;;;;;;0.20;0.00;;;24.60;99.90;;;;;;26044832;22;20194;-71
2022/09/05 00:20:36;;;;;;;0.20;0.00;;;24.60;99.90;;;;;;26046950;22;20187;-72
2022/09/05 00:31:13;;;;;;;0.20;0.10;;;24.60;99.90;;;;;;26045120;22;20167;-72
2022/09/05 00:41:40;;;;;;;0.20;0.00;;;24.50;99.90;;;;;;26017233;22;20192;-72
2022/09/05 00:51:50;;;;;;;0.20;0.00;;;24.60;99.90;;;;;;26046052;22;20188;-72
2022/09/05 01:02:02;;;;;;;0.20;0.00;;;24.60;99.90;;;;;;26044447;22;20179;-71
2022/09/05 01:12:30;;;;;;;0.20;0.00;;;24.60;99.90;;;;;;26042813;22;20183;-71
2022/09/05 01:23:04;;;;;;;0.20;0.00;;;24.60;99.90;;;;;;26043868;22;20190;-72
2022/09/05 01:33:22;;;;;;;0.20;0.00;;;24.50;99.90;;;;;;26013483;22;20178;-72
2022/09/05 01:43:42;;;;;;;0.20;0.00;;;24.50;99.90;;;;;;26043652;22;20239;-71
2022/09/05 01:53:55;;;;;;;0.20;0.00;;;24.40;99.90;;;;;;26043390;22;20192;-72
2022/09/05 02:04:25;;;;;;;0.20;0.00;;;24.30;99.90;;;;;;26043453;22;20179;-71
2022/09/05 02:14:38;;;;;;;0.20;0.00;;;24.40;99.90;;;;;;26040517;22;20160;-71
2022/09/05 02:24:45;;;;;;;0.20;0.00;;;24.30;99.90;;;;;;26020430;22;20255;-72
2022/09/05 02:34:58;;;;;;;0.20;0.00;;;24.30;99.90;;;;;;26023026;22;20172;-72
2022/09/05 02:45:21;;;;;;;0.20;0.00;;;24.30;99.90;;;;;;26050066;22;20266;-72
2022/09/05 02:55:43;;;;;;;0.20;0.00;;;24.20;99.90;;;;;;25920840;23;20307;-72
2022/09/05 03:06:18;;;;;;;0.20;0.00;;;24.30;99.90;;;;;;25919030;23;20219;-72
2022/09/05 03:17:14;;;;;;;0.20;0.10;;;24.20;99.90;;;;;;25919377;23;20237;-72
2022/09/05 03:27:51;;;;;;;0.20;0.00;;;24.20;99.90;;;;;;25919703;23;20184;-72
2022/09/05 03:38:23;;;;;;;0.20;0.10;;;24.10;99.90;;;;;;25921207;23;20168;-71
2022/09/05 03:49:02;;;;;;;0.20;0.00;;;24.10;99.90;;;;;;25932792;22;20200;-73
2022/09/05 04:00:03;;;;;;;0.20;0.10;;;23.90;99.90;;;;;;26019658;22;20179;-71
2022/09/05 04:10:20;;;;;;;0.20;0.00;;;24.00;99.90;;;;;;26016092;22;20346;-72
2022/09/05 04:20:36;;;;;;;0.20;0.00;;;23.90;99.90;;;;;;26044663;22;20159;-72
2022/09/05 04:30:47;;;;;;;0.20;0.00;;;23.80;99.90;;;;;;26016796;22;20195;-73
2022/09/05 04:40:59;;;;;;;0.20;0.08;;;23.90;99.90;;;;;;26044026;22;20160;-71
2022/09/05 04:51:08;;;;;;;0.20;0.00;;;24.00;99.90;;;;;;26043323;22;20187;-72
2022/09/05 05:01:21;;;;;;;0.20;0.00;;;23.90;99.90;;;;;;26041608;22;20183;-72
2022/09/05 05:11:51;;;;;;;0.20;0.00;;;23.90;99.90;;;;;;26042254;22;20184;-72
2022/09/05 05:22:17;;;;;;;0.20;0.00;;;23.70;99.90;;;;;;26039494;22;20246;-72
2022/09/05 05:32:24;;;;;;;0.20;0.00;;;23.70;99.90;;;;;;26041692;22;20160;-71
2022/09/05 05:42:49;;;;;;;0.20;0.00;;;23.80;99.90;;;;;;26039374;22;20184;-72
2022/09/05 05:53:31;;;;;;;0.20;0.00;;;24.00;99.90;;;;;;26011803;22;20192;-70
2022/09/05 06:04:14;;;;;;;0.20;0.00;;;24.10;99.90;;;;;;25869506;22;20188;-71
2022/09/05 06:15:02;;;;;;;0.20;0.00;;;24.50;99.90;;;;;;25984464;22;20167;-71
2022/09/05 06:25:51;;;;;;;0.20;0.00;;;24.70;99.90;;;;;;26037965;22;20298;-72
2022/09/05 06:36:11;;;;;;;0.20;0.00;;;24.80;99.90;;;;;;26035805;22;20156;-72
2022/09/05 06:46:29;;;;;;;0.20;0.00;;;25.00;99.90;;;;;;26036287;22;20184;-70
2022/09/05 06:57:29;;;;;;;0.20;0.00;;;25.40;99.90;;;;;;26037853;22;20218;-71
2022/09/05 07:07:40;;;;;;;0.20;0.00;;;25.70;99.90;;;;;;26036372;22;20187;-72
2022/09/05 07:17:56;;;;;;;0.20;0.00;;;26.10;99.90;;;;;;26014843;22;20259;-72
2022/09/05 07:28:18;;;;;;;0.20;0.00;;;26.00;99.90;;;;;;26018869;22;20211;-70
2022/09/05 07:38:36;;;;;;;0.20;0.00;;;25.80;99.90;;;;;;26043132;22;20164;-71
2022/09/05 07:49:02;;;;;;;0.20;0.00;;;25.30;99.90;;;;;;26016485;22;20249;-71
2022/09/05 07:59:08;;;;;;;0.20;0.00;;;25.40;99.90;;;;;;26040881;22;20160;-72
2022/09/05 08:09:21;;;;;;;0.20;0.00;;;25.70;99.90;;;;;;26043330;22;20195;-72
2022/09/05 08:20:00;;;;;;;0.20;0.10;;;26.30;99.90;;;;;;26042900;22;20174;-70
2022/09/05 08:30:13;;;;;;;0.20;0.00;;;27.70;99.90;;;;;;26041448;22;20172;-71
2022/09/05 08:40:35;;;;;;;0.20;0.00;;;28.60;99.90;;;;;;26042456;22;20148;-71
2022/09/05 08:51:08;;;;;;;0.20;0.08;;;28.10;99.90;;;;;;26042846;22;20211;-72
2022/09/05 09:01:20;;;;;;;0.20;0.00;;;27.90;99.90;;;;;;26041512;22;20160;-70
2022/09/05 09:11:33;;;;;;;0.20;0.00;;;28.60;99.90;;;;;;26013167;22;20214;-70
2022/09/05 09:21:47;;;;;;;0.20;0.00;;;29.10;99.90;;;;;;26012810;22;20167;-71
2022/09/05 09:32:08;;;;;;;0.20;0.00;;;29.30;99.90;;;;;;26040085;22;20144;-70
2022/09/05 09:42:27;;;;;;;0.20;0.00;;;29.30;99.90;;;;;;26039292;22;20199;-70
2022/09/05 09:53:04;;;;;;;0.20;0.00;;;29.10;99.90;;;;;;26012424;22;20234;-70
2022/09/05 10:03:31;;;;;;;0.20;0.00;;;29.60;99.90;;;;;;26011729;22;20187;-71
2022/09/05 10:14:25;;;;;;;0.20;0.00;;;30.40;99.90;;;;;;26038123;22;20164;-71
2022/09/05 10:25:20;;;;;;;0.20;0.00;;;30.20;99.90;;;;;;26039195;22;20192;-71
2022/09/05 10:35:32;;;;;;;0.20;0.00;;;30.20;99.90;;;;;;25935169;22;20168;-70
2022/09/05 10:45:47;;;;;;;0.20;0.00;;;30.20;99.90;;;;;;26041236;22;20188;-71
2022/09/05 10:56:06;;;;;;;0.20;0.00;;;30.70;99.90;;;;;;25919163;23;20193;-71
2022/09/05 11:06:14;;;;;;;0.20;0.00;;;31.10;99.90;;;;;;25919170;23;20196;-70
2022/09/05 11:16:26;;;;;;;0.20;0.00;;;31.50;99.90;;;;;;25915825;23;20172;-70
2022/09/05 11:26:34;;;;;;;0.20;0.00;;;32.20;99.90;;;;;;25917201;23;20187;-71
2022/09/05 11:36:45;;;;;;;0.20;0.00;;;32.50;99.90;;;;;;25919171;23;20171;-71
2022/09/05 11:47:57;;;;;;;0.20;0.00;;;32.70;99.90;;;;;;25914857;23;20196;-72
2022/09/05 11:58:24;;;;;;;0.20;0.00;;;32.60;99.90;;;;;;25805837;22;20175;-74
2022/09/05 12:08:54;;;;;;;0.20;0.00;;;33.80;99.90;;;;;;25913730;23;20192;-71
2022/09/05 12:19:22;;;;;;;0.20;0.00;;;33.50;99.90;;;;;;25915583;23;20359;-72
2022/09/05 12:29:29;;;;;;;0.20;0.10;;;33.10;99.90;;;;;;25914010;22;20184;-72
2022/09/05 12:39:45;;;;;;;0.20;0.00;;;34.00;99.90;;;;;;25913902;23;20171;-72
2022/09/05 12:50:15;;;;;;;0.20;0.00;;;34.80;99.90;;;;;;25950907;22;20222;-73
2022/09/05 13:00:22;;;;;;;0.20;0.00;;;34.60;99.90;;;;;;26041430;22;20151;-71
2022/09/05 13:10:51;;;;;;;0.20;0.00;;;33.30;99.90;;;;;;26037476;22;20196;-72
2022/09/05 13:21:21;;;;;;;0.20;0.00;;;31.10;99.90;;;;;;26038773;22;20164;-72
2022/09/05 13:32:04;;;;;;;0.20;0.00;;;30.50;99.90;;;;;;26039115;22;20186;-72
2022/09/05 13:42:33;;;;;;;0.20;0.00;;;30.10;99.90;;;;;;25970044;22;20164;-72
2022/09/05 13:52:42;;;;;;;0.20;0.00;;;29.90;99.90;;;;;;26010181;22;20188;-69
2022/09/05 14:03:03;;;;;;;0.20;0.00;;;30.10;99.90;;;;;;26037744;22;20172;-70
2022/09/05 14:13:32;;;;;;;0.20;0.00;;;29.70;99.90;;;;;;26037464;22;20243;-72
2022/09/05 14:23:52;;;;;;;0.20;0.00;;;29.80;99.90;;;;;;26015995;22;20228;-71
2022/09/05 14:34:31;;;;;;;0.20;0.00;;;30.10;99.90;;;;;;26045420;22;20164;-71
2022/09/05 14:45:24;;;;;;;0.20;0.00;;;33.00;99.90;;;;;;26018387;22;20207;-71
2022/09/05 14:55:28;;;;;;;0.20;0.00;;;35.70;99.90;;;;;;25912677;23;20189;-72
2022/09/05 15:05:40;;;;;;;0.20;0.00;;;35.80;99.90;;;;;;25916021;23;20192;-72
2022/09/05 15:15:49;;;;;;;0.20;0.00;;;35.80;99.90;;;;;;25911723;23;20164;-71
2022/09/05 15:26:16;;;;;;;0.20;0.00;;;34.60;99.90;;;;;;25916482;23;20191;-72
2022/09/05 15:36:32;;;;;;;0.20;0.00;;;34.20;99.90;;;;;;25912035;23;20161;-74
2022/09/05 15:46:58;;;;;;;0.20;0.00;;;32.70;99.90;;;;;;25912808;23;20184;-73
2022/09/05 15:57:07;;;;;;;0.20;0.00;;;31.90;99.90;;;;;;26039093;22;20195;-71
2022/09/05 16:07:25;;;;;;;0.20;0.00;;;31.40;99.90;;;;;;26015633;22;20215;-70
2022/09/05 16:17:52;;;;;;;0.20;0.00;;;31.00;99.90;;;;;;26013331;22;20165;-70
2022/09/05 16:28:22;;;;;;;0.20;0.00;;;30.50;99.90;;;;;;26038178;22;20203;-71
2022/09/05 16:38:30;;;;;;;0.20;0.00;;;30.30;99.90;;;;;;26037783;22;20224;-72
2022/09/05 16:49:02;;;;;;;0.20;0.00;;;30.00;99.90;;;;;;26037724;22;20192;-72
2022/09/05 16:59:18;;;;;;;0.20;0.00;;;29.60;99.90;;;;;;26011573;22;20179;-72
2022/09/05 17:09:25;;;;;;;0.20;0.00;;;29.20;99.90;;;;;;26009897;22;20197;-73
2022/09/05 17:19:32;;;;;;;0.20;0.00;;;29.10;99.90;;;;;;26035668;22;20171;-71
2022/09/05 17:30:01;;;;;;;0.20;0.00;;;29.60;99.90;;;;;;26009830;22;20184;-71
2022/09/05 17:41:05;;;;;;;0.20;0.00;;;29.00;99.90;;;;;;26036757;22;20174;-73
2022/09/05 17:51:10;;;;;;;0.20;0.00;;;28.60;99.90;;;;;;26020756;22;20204;-70
2022/09/05 18:01:18;;;;;;;0.20;0.00;;;28.40;99.90;;;;;;26008894;22;20159;-71
2022/09/05 18:11:36;;;;;;;0.20;0.00;;;28.40;99.90;;;;;;26035798;22;20229;-70
2022/09/05 18:21:56;;;;;;;0.20;0.00;;;28.20;99.90;;;;;;26037098;22;20148;-72
2022/09/05 18:32:03;;;;;;;0.20;0.00;;;28.10;99.90;;;;;;26037632;22;20187;-71
2022/09/05 18:42:10;;;;;;;0.20;0.00;;;28.10;99.90;;;;;;26012955;22;20156;-70
2022/09/05 18:52:40;;;;;;;0.20;0.00;;;28.00;99.90;;;;;;26008885;22;20417;-71
2022/09/05 19:02:52;;;;;;;0.20;0.00;;;27.90;99.90;;;;;;26032849;22;20164;-71
2022/09/05 19:13:11;;;;;;;0.20;0.00;;;27.70;99.90;;;;;;26042625;22;20200;-70
2022/09/05 19:23:22;;;;;;;0.20;0.00;;;27.70;99.90;;;;;;26042041;22;20171;-71
2022/09/05 19:33:30;;;;;;;0.20;0.00;;;27.60;99.90;;;;;;26044735;22;20172;-71
2022/09/05 19:43:58;;;;;;;0.20;0.00;;;27.40;99.90;;;;;;26013484;22;20184;-72
2022/09/05 19:54:29;;;;;;;0.20;0.00;;;27.00;99.90;;;;;;26045085;22;20230;-71
2022/09/05 20:04:38;;;;;;;0.20;0.00;;;26.50;99.90;;;;;;26041411;22;20203;-71
2022/09/05 20:14:43;;;;;;;0.20;0.00;;;26.20;99.90;;;;;;26043138;22;20152;-71
2022/09/05 20:24:47;;;;;;;0.20;0.00;;;26.10;99.90;;;;;;26042702;22;20195;-72
2022/09/05 20:34:54;;;;;;;0.20;0.00;;;26.10;99.90;;;;;;26017945;22;20163;-72
2022/09/05 20:45:43;;;;;;;0.20;0.00;;;25.90;99.90;;;;;;25988509;22;20188;-71
2022/09/05 20:55:48;;;;;;;0.20;0.00;;;25.80;99.90;;;;;;25914876;23;20197;-72
2022/09/05 21:05:54;;;;;;;0.20;0.00;;;25.80;99.90;;;;;;25914366;23;20225;-70
2022/09/05 21:16:00;;;;;;;0.20;0.00;;;25.70;99.90;;;;;;25915803;22;20149;-71
2022/09/05 21:26:06;;;;;;;0.20;0.00;;;25.70;99.90;;;;;;25913097;23;20184;-71
2022/09/05 21:36:12;;;;;;;0.20;0.00;;;25.50;99.90;;;;;;25915178;23;20172;-71
2022/09/05 21:46:16;;;;;;;0.20;0.00;;;25.40;99.90;;;;;;25914165;23;20173;-72
2022/09/05 21:56:45;;;;;;;0.20;0.00;;;25.20;99.90;;;;;;25888289;23;20192;-73
2022/09/05 22:07:13;;;;;;;0.20;0.00;;;25.20;99.90;;;;;;25914091;23;20215;-72
2022/09/05 22:17:21;;;;;;;0.20;0.00;;;25.20;99.90;;;;;;25912219;23;20161;-72
2022/09/05 22:27:27;;;;;;;0.20;0.00;;;25.20;99.90;;;;;;25912195;22;20177;-72
2022/09/05 22:37:32;;;;;;;0.20;0.00;;;25.20;99.90;;;;;;25915343;23;20164;-72
2022/09/05 22:47:36;;;;;;;0.20;0.00;;;25.10;99.90;;;;;;25925214;22;20203;-73
2022/09/05 22:57:42;;;;;;;0.20;0.08;;;25.10;99.90;;;;;;26021719;22;21016;-71
2022/09/05 23:07:45;;;;;;;0.20;0.00;;;25.20;99.90;;;;;;26019993;22;20191;-71
2022/09/05 23:17:55;;;;;;;0.20;0.00;;;25.30;99.90;;;;;;26048479;22;20182;-72
2022/09/05 23:27:59;;;;;;;0.20;0.00;;;25.40;99.90;;;;;;26020354;22;20195;-71
2022/09/05 23:38:10;;;;;;;0.20;0.00;;;25.30;99.90;;;;;;26046998;22;20164;-71
2022/09/05 23:48:14;;;;;;;0.20;0.03;;;25.20;99.90;;;;;;26020084;22;20249;-72
2022/09/05 23:58:19;;;;;;;0.20;0.00;;;25.20;99.90;;;;;;26046480;22;20164;-72
